sensor_id;sensor_type;location;lat;lon;timestamp;pressure;altitude;pressure_sealevel;temperature;humidity
59063;BME280;44851;45.648;9.004;2023-01-26T00:01:51;99226.69;;;5.48;66.78
59063;BME280;44851;45.648;9.004;2023-01-26T00:04:17;99221.31;;;5.51;66.29
59063;BME280;44851;45.648;9.004;2023-01-26T00:06:43;99228.38;;;5.49;67.23
59063;BME280;44851;45.648;9.004;2023-01-26T00:09:12;99228.78;;;5.56;66.77
59063;BME280;44851;45.648;9.004;2023-01-26T00:11:38;99219.75;;;5.49;66.78
59063;BME280;44851;45.648;9.004;2023-01-26T00:14:04;99216.34;;;5.48;67.04
59063;BME280;44851;45.648;9.004;2023-01-26T00:16:29;99213.47;;;5.40;67.48
59063;BME280;44851;45.648;9.004;2023-01-26T00:18:54;99216.25;;;5.50;66.92
59063;BME280;44851;45.648;9.004;2023-01-26T00:21:21;99211.41;;;5.45;66.97
59063;BME280;44851;45.648;9.004;2023-01-26T00:23:47;99213.75;;;5.48;67.38
59063;BME280;44851;45.648;9.004;2023-01-26T00:26:15;99208.91;;;5.56;66.93
59063;BME280;44851;45.648;9.004;2023-01-26T00:28:41;99205.41;;;5.57;67.30
59063;BME280;44851;45.648;9.004;2023-01-26T00:31:10;99197.94;;;5.53;67.01
59063;BME280;44851;45.648;9.004;2023-01-26T00:33:37;99197.53;;;5.59;67.05
59063;BME280;44851;45.648;9.004;2023-01-26T00:36:02;99191.75;;;5.55;66.78
59063;BME280;44851;45.648;9.004;2023-01-26T00:38:28;99190.09;;;5.54;66.72
59063;BME280;44851;45.648;9.004;2023-01-26T00:40:53;99192.88;;;5.51;66.89
59063;BME280;44851;45.648;9.004;2023-01-26T00:43:19;99183.47;;;5.50;67.08
59063;BME280;44851;45.648;9.004;2023-01-26T00:45:44;99178.91;;;5.54;67.49
59063;BME280;44851;45.648;9.004;2023-01-26T00:48:09;99187.00;;;5.49;67.14
59063;BME280;44851;45.648;9.004;2023-01-26T00:50:35;99174.09;;;5.49;66.98
59063;BME280;44851;45.648;9.004;2023-01-26T00:53:03;99179.53;;;5.57;66.89
59063;BME280;44851;45.648;9.004;2023-01-26T00:55:28;99176.22;;;5.43;66.93
59063;BME280;44851;45.648;9.004;2023-01-26T00:57:58;99185.03;;;5.40;67.38
59063;BME280;44851;45.648;9.004;2023-01-26T01:00:23;99184.72;;;5.45;67.43
59063;BME280;44851;45.648;9.004;2023-01-26T01:02:49;99179.25;;;5.49;67.47
59063;BME280;44851;45.648;9.004;2023-01-26T01:05:14;99179.25;;;5.49;67.38
59063;BME280;44851;45.648;9.004;2023-01-26T01:07:40;99182.97;;;5.45;67.77
59063;BME280;44851;45.648;9.004;2023-01-26T01:10:06;99174.38;;;5.45;67.92
59063;BME280;44851;45.648;9.004;2023-01-26T01:12:32;99166.41;;;5.48;67.54
59063;BME280;44851;45.648;9.004;2023-01-26T01:14:57;99164.25;;;5.54;67.43
59063;BME280;44851;45.648;9.004;2023-01-26T01:17:23;99162.16;;;5.47;67.36
59063;BME280;44851;45.648;9.004;2023-01-26T01:19:48;99162.06;;;5.48;67.49
59063;BME280;44851;45.648;9.004;2023-01-26T01:22:14;99159.88;;;5.42;67.16
59063;BME280;44851;45.648;9.004;2023-01-26T01:24:39;99158.56;;;5.49;67.60
59063;BME280;44851;45.648;9.004;2023-01-26T01:27:04;99152.88;;;5.44;67.62
59063;BME280;44851;45.648;9.004;2023-01-26T01:29:30;99151.00;;;5.46;67.36
59063;BME280;44851;45.648;9.004;2023-01-26T01:31:55;99146.88;;;5.44;67.54
59063;BME280;44851;45.648;9.004;2023-01-26T01:34:21;99145.84;;;5.46;67.74
59063;BME280;44851;45.648;9.004;2023-01-26T01:36:46;99140.84;;;5.43;67.69
59063;BME280;44851;45.648;9.004;2023-01-26T01:39:11;99146.44;;;5.37;67.86
59063;BME280;44851;45.648;9.004;2023-01-26T01:41:37;99141.91;;;5.28;68.26
59063;BME280;44851;45.648;9.004;2023-01-26T01:44:19;99135.28;;;5.36;67.23
59063;BME280;44851;45.648;9.004;2023-01-26T01:47:12;99140.44;;;5.36;67.69
59063;BME280;44851;45.648;9.004;2023-01-26T01:49:41;99123.91;;;5.26;67.94
59063;BME280;44851;45.648;9.004;2023-01-26T01:52:10;99127.34;;;5.40;68.18
59063;BME280;44851;45.648;9.004;2023-01-26T01:54:45;99123.09;;;5.38;67.71
59063;BME280;44851;45.648;9.004;2023-01-26T01:57:16;99124.13;;;5.36;67.47
59063;BME280;44851;45.648;9.004;2023-01-26T01:59:52;99118.75;;;5.39;67.12
59063;BME280;44851;45.648;9.004;2023-01-26T02:02:19;99119.19;;;5.33;68.64
59063;BME280;44851;45.648;9.004;2023-01-26T02:04:45;99122.06;;;5.41;67.91
59063;BME280;44851;45.648;9.004;2023-01-26T02:07:10;99120.19;;;5.30;67.84
59063;BME280;44851;45.648;9.004;2023-01-26T02:09:37;99119.38;;;5.30;67.20
59063;BME280;44851;45.648;9.004;2023-01-26T02:12:26;99117.72;;;5.29;68.01
59063;BME280;44851;45.648;9.004;2023-01-26T02:14:54;99112.31;;;5.32;67.67
59063;BME280;44851;45.648;9.004;2023-01-26T02:17:20;99121.66;;;5.34;67.51
59063;BME280;44851;45.648;9.004;2023-01-26T02:19:50;99105.50;;;5.31;67.68
59063;BME280;44851;45.648;9.004;2023-01-26T02:24:58;99098.88;;;5.27;67.17
59063;BME280;44851;45.648;9.004;2023-01-26T02:27:25;99092.41;;;5.34;68.18
59063;BME280;44851;45.648;9.004;2023-01-26T02:29:51;99092.09;;;5.38;67.51
59063;BME280;44851;45.648;9.004;2023-01-26T02:32:18;99091.47;;;5.35;67.90
59063;BME280;44851;45.648;9.004;2023-01-26T02:34:43;99084.41;;;5.37;67.26
59063;BME280;44851;45.648;9.004;2023-01-26T02:37:13;99087.41;;;5.31;66.72
59063;BME280;44851;45.648;9.004;2023-01-26T02:39:55;99078.31;;;5.38;67.48
59063;BME280;44851;45.648;9.004;2023-01-26T02:42:24;99071.72;;;5.34;67.72
59063;BME280;44851;45.648;9.004;2023-01-26T02:45:07;99067.50;;;5.33;67.68
59063;BME280;44851;45.648;9.004;2023-01-26T02:47:33;99064.16;;;5.31;68.21
59063;BME280;44851;45.648;9.004;2023-01-26T02:49:59;99055.47;;;5.32;68.27
59063;BME280;44851;45.648;9.004;2023-01-26T02:52:27;99055.28;;;5.35;67.89
59063;BME280;44851;45.648;9.004;2023-01-26T02:54:54;99059.00;;;5.31;68.34
59063;BME280;44851;45.648;9.004;2023-01-26T02:57:39;99056.72;;;5.26;67.90
59063;BME280;44851;45.648;9.004;2023-01-26T03:00:10;99048.53;;;5.32;67.83
59063;BME280;44851;45.648;9.004;2023-01-26T03:02:36;99049.06;;;5.25;68.22
59063;BME280;44851;45.648;9.004;2023-01-26T03:05:02;99051.78;;;5.23;68.03
59063;BME280;44851;45.648;9.004;2023-01-26T03:07:29;99048.56;;;5.20;68.41
59063;BME280;44851;45.648;9.004;2023-01-26T03:09:54;99037.81;;;5.13;67.58
59063;BME280;44851;45.648;9.004;2023-01-26T03:12:20;99032.94;;;5.21;68.19
59063;BME280;44851;45.648;9.004;2023-01-26T03:14:45;99035.53;;;5.08;67.61
59063;BME280;44851;45.648;9.004;2023-01-26T03:17:31;99028.44;;;5.12;68.43
59063;BME280;44851;45.648;9.004;2023-01-26T03:19:56;99032.13;;;5.08;68.16
59063;BME280;44851;45.648;9.004;2023-01-26T03:22:40;99023.84;;;5.16;68.77
59063;BME280;44851;45.648;9.004;2023-01-26T03:25:24;99028.72;;;5.20;68.74
59063;BME280;44851;45.648;9.004;2023-01-26T03:28:08;99023.84;;;5.16;68.72
59063;BME280;44851;45.648;9.004;2023-01-26T03:30:34;99022.00;;;5.18;68.60
59063;BME280;44851;45.648;9.004;2023-01-26T03:32:59;99027.09;;;5.06;68.03
59063;BME280;44851;45.648;9.004;2023-01-26T03:35:24;99025.94;;;5.10;68.16
59063;BME280;44851;45.648;9.004;2023-01-26T03:37:50;99026.16;;;5.07;68.98
59063;BME280;44851;45.648;9.004;2023-01-26T03:40:19;99025.09;;;5.10;68.94
59063;BME280;44851;45.648;9.004;2023-01-26T03:43:07;99025.44;;;5.18;69.04
59063;BME280;44851;45.648;9.004;2023-01-26T03:45:52;99018.19;;;5.23;68.91
59063;BME280;44851;45.648;9.004;2023-01-26T03:48:36;99024.78;;;5.15;68.28
59063;BME280;44851;45.648;9.004;2023-01-26T03:51:20;99028.72;;;5.07;69.22
59063;BME280;44851;45.648;9.004;2023-01-26T03:54:04;99020.34;;;5.17;68.92
59063;BME280;44851;45.648;9.004;2023-01-26T03:56:48;99013.09;;;5.22;69.32
59063;BME280;44851;45.648;9.004;2023-01-26T03:59:13;99014.88;;;5.21;68.69
59063;BME280;44851;45.648;9.004;2023-01-26T04:01:45;99011.66;;;5.30;69.03
59063;BME280;44851;45.648;9.004;2023-01-26T04:04:30;99011.84;;;5.27;68.85
59063;BME280;44851;45.648;9.004;2023-01-26T04:07:14;99009.25;;;5.27;68.67
59063;BME280;44851;45.648;9.004;2023-01-26T04:09:58;99013.63;;;5.27;68.71
59063;BME280;44851;45.648;9.004;2023-01-26T04:12:23;99000.50;;;5.30;68.74
59063;BME280;44851;45.648;9.004;2023-01-26T04:14:48;98998.09;;;5.27;68.76
59063;BME280;44851;45.648;9.004;2023-01-26T04:17:32;98998.03;;;5.28;68.67
59063;BME280;44851;45.648;9.004;2023-01-26T04:20:16;98999.28;;;5.23;69.27
59063;BME280;44851;45.648;9.004;2023-01-26T04:23:00;98994.81;;;5.25;68.79
59063;BME280;44851;45.648;9.004;2023-01-26T04:25:25;98994.38;;;5.31;68.97
59063;BME280;44851;45.648;9.004;2023-01-26T04:27:51;98985.00;;;5.30;68.69
59063;BME280;44851;45.648;9.004;2023-01-26T04:30:17;98987.56;;;5.30;68.83
59063;BME280;44851;45.648;9.004;2023-01-26T04:32:43;98988.72;;;5.26;68.58
59063;BME280;44851;45.648;9.004;2023-01-26T04:35:10;98974.75;;;5.28;68.93
59063;BME280;44851;45.648;9.004;2023-01-26T04:37:36;98981.47;;;5.31;68.98
59063;BME280;44851;45.648;9.004;2023-01-26T04:40:02;98976.53;;;5.28;68.77
59063;BME280;44851;45.648;9.004;2023-01-26T04:42:28;98974.44;;;5.33;68.97
59063;BME280;44851;45.648;9.004;2023-01-26T04:44:53;98971.44;;;5.26;68.59
59063;BME280;44851;45.648;9.004;2023-01-26T04:47:20;98970.13;;;5.21;68.10
59063;BME280;44851;45.648;9.004;2023-01-26T04:49:45;98961.66;;;5.19;69.18
59063;BME280;44851;45.648;9.004;2023-01-26T04:52:11;98968.28;;;5.23;68.60
59063;BME280;44851;45.648;9.004;2023-01-26T04:54:36;98960.22;;;5.15;68.18
59063;BME280;44851;45.648;9.004;2023-01-26T04:57:02;98958.56;;;5.14;68.71
59063;BME280;44851;45.648;9.004;2023-01-26T04:59:27;98967.34;;;4.98;68.96
59063;BME280;44851;45.648;9.004;2023-01-26T05:01:53;98966.84;;;4.93;69.21
59063;BME280;44851;45.648;9.004;2023-01-26T05:04:18;98957.75;;;4.88;69.42
59063;BME280;44851;45.648;9.004;2023-01-26T05:06:44;98956.94;;;4.87;69.39
59063;BME280;44851;45.648;9.004;2023-01-26T05:09:10;98953.41;;;4.88;69.49
59063;BME280;44851;45.648;9.004;2023-01-26T05:11:35;98957.13;;;4.84;69.77
59063;BME280;44851;45.648;9.004;2023-01-26T05:14:01;98961.47;;;4.96;69.28
59063;BME280;44851;45.648;9.004;2023-01-26T05:16:27;98949.47;;;4.95;69.53
59063;BME280;44851;45.648;9.004;2023-01-26T05:18:53;98953.41;;;5.14;69.02
59063;BME280;44851;45.648;9.004;2023-01-26T05:21:19;98948.44;;;5.10;69.41
59063;BME280;44851;45.648;9.004;2023-01-26T05:23:44;98946.16;;;5.06;68.81
59063;BME280;44851;45.648;9.004;2023-01-26T05:26:10;98955.03;;;5.15;69.21
59063;BME280;44851;45.648;9.004;2023-01-26T05:28:35;98951.44;;;5.04;69.20
59063;BME280;44851;45.648;9.004;2023-01-26T05:31:01;98956.09;;;5.12;69.52
59063;BME280;44851;45.648;9.004;2023-01-26T05:33:26;98952.97;;;5.20;68.90
59063;BME280;44851;45.648;9.004;2023-01-26T05:35:52;98953.66;;;5.22;68.78
59063;BME280;44851;45.648;9.004;2023-01-26T05:38:18;98941.81;;;5.19;69.11
59063;BME280;44851;45.648;9.004;2023-01-26T05:40:44;98949.69;;;5.18;69.11
59063;BME280;44851;45.648;9.004;2023-01-26T05:43:10;98960.41;;;5.24;69.28
59063;BME280;44851;45.648;9.004;2023-01-26T05:45:37;98954.03;;;5.04;68.65
59063;BME280;44851;45.648;9.004;2023-01-26T05:48:03;98962.28;;;5.09;68.91
59063;BME280;44851;45.648;9.004;2023-01-26T05:50:29;98958.47;;;5.02;69.17
59063;BME280;44851;45.648;9.004;2023-01-26T05:52:54;98948.84;;;5.04;69.07
59063;BME280;44851;45.648;9.004;2023-01-26T05:55:21;98951.50;;;5.16;69.43
59063;BME280;44851;45.648;9.004;2023-01-26T05:57:47;98947.78;;;5.20;69.10
59063;BME280;44851;45.648;9.004;2023-01-26T06:00:13;98952.75;;;5.23;69.52
59063;BME280;44851;45.648;9.004;2023-01-26T06:02:39;98949.69;;;5.18;69.13
59063;BME280;44851;45.648;9.004;2023-01-26T06:05:05;98948.44;;;5.10;69.09
59063;BME280;44851;45.648;9.004;2023-01-26T06:07:31;98949.69;;;5.18;69.45
59063;BME280;44851;45.648;9.004;2023-01-26T06:09:56;98949.69;;;5.18;69.23
59063;BME280;44851;45.648;9.004;2023-01-26T06:12:22;98955.03;;;5.15;69.63
59063;BME280;44851;45.648;9.004;2023-01-26T06:14:48;98950.94;;;5.12;69.76
59063;BME280;44851;45.648;9.004;2023-01-26T06:17:15;98948.94;;;5.16;70.00
59063;BME280;44851;45.648;9.004;2023-01-26T06:19:40;98951.50;;;5.16;69.85
59063;BME280;44851;45.648;9.004;2023-01-26T06:22:07;98948.00;;;5.17;69.74
59063;BME280;44851;45.648;9.004;2023-01-26T06:24:33;98950.31;;;5.08;70.21
59063;BME280;44851;45.648;9.004;2023-01-26T06:26:59;98947.91;;;5.18;70.00
59063;BME280;44851;45.648;9.004;2023-01-26T06:29:24;98943.69;;;5.04;69.56
59063;BME280;44851;45.648;9.004;2023-01-26T06:31:49;98941.53;;;4.98;69.50
59063;BME280;44851;45.648;9.004;2023-01-26T06:34:15;98942.97;;;5.02;69.62
59063;BME280;44851;45.648;9.004;2023-01-26T06:36:40;98943.69;;;5.17;69.63
59063;BME280;44851;45.648;9.004;2023-01-26T06:39:06;98941.19;;;5.16;69.26
59063;BME280;44851;45.648;9.004;2023-01-26T06:41:31;98941.84;;;5.06;70.11
59063;BME280;44851;45.648;9.004;2023-01-26T06:43:57;98939.75;;;5.11;69.47
59063;BME280;44851;45.648;9.004;2023-01-26T06:46:22;98941.72;;;4.95;68.93
59063;BME280;44851;45.648;9.004;2023-01-26T06:48:48;98944.31;;;4.95;69.09
59063;BME280;44851;45.648;9.004;2023-01-26T06:53:54;98945.13;;;5.08;68.74
59063;BME280;44851;45.648;9.004;2023-01-26T06:56:21;98947.19;;;5.16;69.56
59063;BME280;44851;45.648;9.004;2023-01-26T06:58:47;98946.34;;;5.16;69.77
59063;BME280;44851;45.648;9.004;2023-01-26T07:01:16;98938.59;;;5.16;69.77
59063;BME280;44851;45.648;9.004;2023-01-26T07:03:42;98941.41;;;5.13;70.27
59063;BME280;44851;45.648;9.004;2023-01-26T07:06:07;98940.47;;;5.14;69.43
59063;BME280;44851;45.648;9.004;2023-01-26T07:08:36;98942.44;;;5.10;69.56
59063;BME280;44851;45.648;9.004;2023-01-26T07:11:02;98943.25;;;5.10;69.73
59063;BME280;44851;45.648;9.004;2023-01-26T07:13:27;98940.78;;;5.09;69.98
59063;BME280;44851;45.648;9.004;2023-01-26T07:16:03;98942.44;;;5.10;68.97
59063;BME280;44851;45.648;9.004;2023-01-26T07:18:29;98945.22;;;5.20;69.54
59063;BME280;44851;45.648;9.004;2023-01-26T07:21:01;98936.84;;;5.29;69.50
59063;BME280;44851;45.648;9.004;2023-01-26T07:23:27;98938.91;;;5.24;69.51
59063;BME280;44851;45.648;9.004;2023-01-26T07:25:52;98945.72;;;5.25;68.92
59063;BME280;44851;45.648;9.004;2023-01-26T07:28:17;98952.53;;;5.26;69.84
59063;BME280;44851;45.648;9.004;2023-01-26T07:30:43;98946.03;;;5.20;69.97
59063;BME280;44851;45.648;9.004;2023-01-26T07:33:08;98944.69;;;5.15;69.62
59063;BME280;44851;45.648;9.004;2023-01-26T07:35:33;98952.22;;;5.30;68.86
59063;BME280;44851;45.648;9.004;2023-01-26T07:37:59;98952.13;;;5.19;69.09
59063;BME280;44851;45.648;9.004;2023-01-26T07:40:24;98955.16;;;5.13;69.80
59063;BME280;44851;45.648;9.004;2023-01-26T07:42:50;98947.47;;;5.11;70.03
59063;BME280;44851;45.648;9.004;2023-01-26T07:45:15;98953.91;;;5.06;70.00
59063;BME280;44851;45.648;9.004;2023-01-26T07:47:42;98954.75;;;5.06;70.08
59063;BME280;44851;45.648;9.004;2023-01-26T07:50:09;98952.38;;;5.03;70.14
59063;BME280;44851;45.648;9.004;2023-01-26T07:52:35;98951.94;;;5.09;69.77
59063;BME280;44851;45.648;9.004;2023-01-26T07:55:01;98949.28;;;4.98;69.70
59063;BME280;44851;45.648;9.004;2023-01-26T07:57:27;98948.75;;;4.93;69.82
59063;BME280;44851;45.648;9.004;2023-01-26T07:59:52;98943.91;;;5.01;69.29
59063;BME280;44851;45.648;9.004;2023-01-26T08:02:17;98948.84;;;5.04;69.13
59063;BME280;44851;45.648;9.004;2023-01-26T08:04:43;98944.63;;;5.03;69.51
59063;BME280;44851;45.648;9.004;2023-01-26T08:07:08;98956.09;;;4.99;69.11
59063;BME280;44851;45.648;9.004;2023-01-26T08:09:34;98948.47;;;4.98;68.84
59063;BME280;44851;45.648;9.004;2023-01-26T08:12:00;98949.28;;;4.98;68.01
59063;BME280;44851;45.648;9.004;2023-01-26T08:14:26;98947.41;;;5.00;68.11
59063;BME280;44851;45.648;9.004;2023-01-26T08:16:51;98937.06;;;5.00;68.52
59063;BME280;44851;45.648;9.004;2023-01-26T08:19:17;98939.84;;;5.10;67.75
59063;BME280;44851;45.648;9.004;2023-01-26T08:21:42;98943.47;;;4.95;67.84
59063;BME280;44851;45.648;9.004;2023-01-26T08:24:10;98941.22;;;5.03;68.64
59063;BME280;44851;45.648;9.004;2023-01-26T08:26:36;98947.84;;;5.07;68.33
59063;BME280;44851;45.648;9.004;2023-01-26T08:29:02;98945.75;;;4.99;67.62
59063;BME280;44851;45.648;9.004;2023-01-26T08:31:27;98941.81;;;5.19;68.37
59063;BME280;44851;45.648;9.004;2023-01-26T08:33:54;98946.34;;;5.16;67.60
59063;BME280;44851;45.648;9.004;2023-01-26T08:36:21;98945.41;;;5.17;67.13
59063;BME280;44851;45.648;9.004;2023-01-26T08:38:47;98942.81;;;5.17;66.45
59063;BME280;44851;45.648;9.004;2023-01-26T08:41:12;98946.78;;;5.09;67.05
59063;BME280;44851;45.648;9.004;2023-01-26T08:43:38;98943.34;;;5.22;65.52
59063;BME280;44851;45.648;9.004;2023-01-26T08:46:04;98942.81;;;5.17;65.79
59063;BME280;44851;45.648;9.004;2023-01-26T08:48:30;98951.09;;;5.22;66.30
59063;BME280;44851;45.648;9.004;2023-01-26T08:50:58;98947.59;;;5.23;65.79
59063;BME280;44851;45.648;9.004;2023-01-26T08:53:24;98947.59;;;5.23;65.89
59063;BME280;44851;45.648;9.004;2023-01-26T08:55:50;98956.69;;;5.16;65.25
59063;BME280;44851;45.648;9.004;2023-01-26T08:58:16;98945.09;;;5.21;66.02
59063;BME280;44851;45.648;9.004;2023-01-26T09:00:41;98949.00;;;5.27;64.93
59063;BME280;44851;45.648;9.004;2023-01-26T09:03:07;98951.41;;;5.30;64.31
59063;BME280;44851;45.648;9.004;2023-01-26T09:05:38;98953.47;;;5.25;63.88
59063;BME280;44851;45.648;9.004;2023-01-26T09:08:04;98951.09;;;5.22;64.44
59063;BME280;44851;45.648;9.004;2023-01-26T09:10:30;98949.63;;;5.30;64.71
59063;BME280;44851;45.648;9.004;2023-01-26T09:12:57;98946.28;;;5.41;63.04
59063;BME280;44851;45.648;9.004;2023-01-26T09:15:23;98950.47;;;5.31;64.10
59063;BME280;44851;45.648;9.004;2023-01-26T09:17:49;98951.50;;;5.28;63.73
59063;BME280;44851;45.648;9.004;2023-01-26T09:20:15;98951.66;;;5.38;63.70
59063;BME280;44851;45.648;9.004;2023-01-26T09:22:41;98935.53;;;5.47;62.97
59063;BME280;44851;45.648;9.004;2023-01-26T09:25:07;98943.91;;;5.38;63.36
59063;BME280;44851;45.648;9.004;2023-01-26T09:27:32;98945.78;;;5.36;63.86
59063;BME280;44851;45.648;9.004;2023-01-26T09:29:58;98946.69;;;5.48;63.09
59063;BME280;44851;45.648;9.004;2023-01-26T09:32:23;98947.75;;;5.45;63.33
59063;BME280;44851;45.648;9.004;2023-01-26T09:34:49;98949.50;;;5.45;63.70
59063;BME280;44851;45.648;9.004;2023-01-26T09:37:14;98947.31;;;5.51;63.70
59063;BME280;44851;45.648;9.004;2023-01-26T09:39:40;98947.50;;;5.48;63.02
59063;BME280;44851;45.648;9.004;2023-01-26T09:42:31;98942.56;;;5.45;62.01
59063;BME280;44851;45.648;9.004;2023-01-26T09:45:19;98945.66;;;5.50;61.54
59063;BME280;44851;45.648;9.004;2023-01-26T09:50:22;98950.50;;;5.55;62.79
59063;BME280;44851;45.648;9.004;2023-01-26T09:55:22;98956.56;;;5.67;61.11
59063;BME280;44851;45.648;9.004;2023-01-26T09:57:52;98957.44;;;5.54;61.30
59063;BME280;44851;45.648;9.004;2023-01-26T10:00:29;98955.56;;;5.56;60.85
59063;BME280;44851;45.648;9.004;2023-01-26T10:03:12;98952.66;;;5.61;60.49
59063;BME280;44851;45.648;9.004;2023-01-26T10:08:16;98949.06;;;5.75;60.17
59063;BME280;44851;45.648;9.004;2023-01-26T10:10:52;98942.25;;;5.74;60.98
59063;BME280;44851;45.648;9.004;2023-01-26T10:13:19;98945.69;;;5.85;59.40
59063;BME280;44851;45.648;9.004;2023-01-26T10:16:09;98937.06;;;5.74;58.79
59063;BME280;44851;45.648;9.004;2023-01-26T10:18:47;98937.38;;;5.82;59.89
59063;BME280;44851;45.648;9.004;2023-01-26T10:21:14;98937.06;;;5.86;59.97
59063;BME280;44851;45.648;9.004;2023-01-26T10:23:46;98935.34;;;5.98;59.24
59063;BME280;44851;45.648;9.004;2023-01-26T10:26:14;98937.31;;;5.95;58.96
59063;BME280;44851;45.648;9.004;2023-01-26T10:28:41;98936.38;;;5.96;59.04
59063;BME280;44851;45.648;9.004;2023-01-26T10:31:14;98927.63;;;6.09;59.67
59063;BME280;44851;45.648;9.004;2023-01-26T10:33:47;98924.25;;;6.20;59.81
59063;BME280;44851;45.648;9.004;2023-01-26T10:36:14;98926.56;;;6.12;58.99
59063;BME280;44851;45.648;9.004;2023-01-26T10:38:43;98920.09;;;6.18;58.38
59063;BME280;44851;45.648;9.004;2023-01-26T10:44:00;98914.25;;;6.27;58.38
59063;BME280;44851;45.648;9.004;2023-01-26T10:49:12;98903.22;;;6.47;58.56
59063;BME280;44851;45.648;9.004;2023-01-26T10:52:06;98908.16;;;6.39;58.25
59063;BME280;44851;45.648;9.004;2023-01-26T10:54:31;98900.78;;;6.57;58.24
59063;BME280;44851;45.648;9.004;2023-01-26T10:57:04;98893.13;;;6.66;56.50
59063;BME280;44851;45.648;9.004;2023-01-26T10:59:42;98889.13;;;6.62;57.13
59063;BME280;44851;45.648;9.004;2023-01-26T11:04:35;98881.56;;;6.71;57.42
59063;BME280;44851;45.648;9.004;2023-01-26T11:09:43;98870.16;;;6.84;57.38
59063;BME280;44851;45.648;9.004;2023-01-26T11:12:16;98874.03;;;6.90;56.45
59063;BME280;44851;45.648;9.004;2023-01-26T11:14:59;98858.19;;;6.72;54.93
59063;BME280;44851;45.648;9.004;2023-01-26T11:17:39;98863.44;;;6.82;55.55
59063;BME280;44851;45.648;9.004;2023-01-26T11:20:44;98854.13;;;6.90;56.22
59063;BME280;44851;45.648;9.004;2023-01-26T11:29:08;98836.66;;;7.90;54.90
59063;BME280;44851;45.648;9.004;2023-01-26T11:31:38;98835.03;;;7.99;55.02
59063;BME280;44851;45.648;9.004;2023-01-26T11:45:35;98815.59;;;7.52;56.20
59063;BME280;44851;45.648;9.004;2023-01-26T11:51:26;98804.34;;;7.51;54.18
59063;BME280;44851;45.648;9.004;2023-01-26T11:59:51;98790.88;;;7.68;55.42
59063;BME280;44851;45.648;9.004;2023-01-26T12:02:31;98784.84;;;7.68;55.43
59063;BME280;44851;45.648;9.004;2023-01-26T12:05:01;98783.59;;;7.83;55.13
59063;BME280;44851;45.648;9.004;2023-01-26T12:07:49;98774.69;;;7.76;52.65
59063;BME280;44851;45.648;9.004;2023-01-26T12:10:23;98767.19;;;7.83;54.16
59063;BME280;44851;45.648;9.004;2023-01-26T12:13:43;98756.81;;;7.83;53.13
59063;BME280;44851;45.648;9.004;2023-01-26T12:15:55;98757.78;;;7.82;53.53
59063;BME280;44851;45.648;9.004;2023-01-26T12:18:30;98755.75;;;7.85;52.90
59063;BME280;44851;45.648;9.004;2023-01-26T12:21:10;98745.13;;;7.88;52.88
59063;BME280;44851;45.648;9.004;2023-01-26T12:26:19;98736.50;;;7.88;52.83
59063;BME280;44851;45.648;9.004;2023-01-26T12:28:58;98740.50;;;7.92;52.52
59063;BME280;44851;45.648;9.004;2023-01-26T12:31:33;98731.97;;;7.80;52.72
59063;BME280;44851;45.648;9.004;2023-01-26T12:34:00;98730.50;;;7.87;53.94
59063;BME280;44851;45.648;9.004;2023-01-26T12:39:35;98710.66;;;7.77;52.20
59063;BME280;44851;45.648;9.004;2023-01-26T12:47:24;98700.94;;;8.09;52.53
59063;BME280;44851;45.648;9.004;2023-01-26T12:50:15;98702.19;;;8.05;52.91
59063;BME280;44851;45.648;9.004;2023-01-26T12:52:56;98698.09;;;7.82;51.47
59063;BME280;44851;45.648;9.004;2023-01-26T12:55:51;98693.66;;;7.72;51.61
59063;BME280;44851;45.648;9.004;2023-01-26T12:58:22;98685.47;;;7.67;53.65
59063;BME280;44851;45.648;9.004;2023-01-26T13:00:53;98681.44;;;7.75;53.52
59063;BME280;44851;45.648;9.004;2023-01-26T13:03:23;98676.44;;;7.71;53.19
59063;BME280;44851;45.648;9.004;2023-01-26T13:06:17;98682.47;;;7.72;51.92
59063;BME280;44851;45.648;9.004;2023-01-26T13:16:49;98661.84;;;7.70;52.42
59063;BME280;44851;45.648;9.004;2023-01-26T13:24:55;98656.97;;;7.56;52.86
59063;BME280;44851;45.648;9.004;2023-01-26T13:27:33;98654.22;;;7.48;53.08
59063;BME280;44851;45.648;9.004;2023-01-26T13:29:59;98658.31;;;7.51;53.22
59063;BME280;44851;45.648;9.004;2023-01-26T13:34:58;98648.00;;;7.60;54.17
59063;BME280;44851;45.648;9.004;2023-01-26T13:48:53;98630.03;;;7.68;52.25
59063;BME280;44851;45.648;9.004;2023-01-26T13:51:22;98627.91;;;7.73;52.31
59063;BME280;44851;45.648;9.004;2023-01-26T13:54:11;98619.38;;;7.71;51.44
59063;BME280;44851;45.648;9.004;2023-01-26T14:01:48;98625.09;;;7.65;51.47
59063;BME280;44851;45.648;9.004;2023-01-26T14:06:45;98626.22;;;7.72;53.62
59063;BME280;44851;45.648;9.004;2023-01-26T14:09:12;98625.53;;;7.70;52.42
59063;BME280;44851;45.648;9.004;2023-01-26T14:11:39;98623.41;;;7.55;51.48
59063;BME280;44851;45.648;9.004;2023-01-26T14:14:18;98624.50;;;7.52;50.41
59063;BME280;44851;45.648;9.004;2023-01-26T14:16:44;98620.00;;;7.54;49.89
59063;BME280;44851;45.648;9.004;2023-01-26T14:19:12;98616.53;;;7.44;51.41
59063;BME280;44851;45.648;9.004;2023-01-26T14:21:51;98621.47;;;7.47;50.04
59063;BME280;44851;45.648;9.004;2023-01-26T14:24:30;98621.66;;;7.34;50.86
59063;BME280;44851;45.648;9.004;2023-01-26T14:26:56;98622.75;;;7.32;52.29
59063;BME280;44851;45.648;9.004;2023-01-26T14:29:24;98618.31;;;7.23;51.38
59063;BME280;44851;45.648;9.004;2023-01-26T14:31:53;98612.94;;;7.35;52.82
59063;BME280;44851;45.648;9.004;2023-01-26T14:34:24;98615.94;;;7.31;53.43
59063;BME280;44851;45.648;9.004;2023-01-26T14:37:16;98621.88;;;7.21;51.35
59063;BME280;44851;45.648;9.004;2023-01-26T14:39:42;98614.78;;;7.24;52.03
59063;BME280;44851;45.648;9.004;2023-01-26T14:42:12;98619.44;;;7.30;52.05
59063;BME280;44851;45.648;9.004;2023-01-26T14:44:39;98612.53;;;7.09;51.80
59063;BME280;44851;45.648;9.004;2023-01-26T14:47:18;98615.66;;;7.13;51.96
59063;BME280;44851;45.648;9.004;2023-01-26T14:49:56;98613.22;;;7.11;52.22
59063;BME280;44851;45.648;9.004;2023-01-26T14:52:33;98616.94;;;7.18;52.06
59063;BME280;44851;45.648;9.004;2023-01-26T14:55:05;98613.91;;;7.13;53.20
59063;BME280;44851;45.648;9.004;2023-01-26T14:57:32;98615.56;;;7.14;54.32
59063;BME280;44851;45.648;9.004;2023-01-26T14:59:59;98620.53;;;7.06;53.39